San Benito, TX (78586)

10:12 AM CDT on August 30, 2016 (GMT -0500)
Los Fresnos NW | | Change Station

Elev 20 ft 26.12 °N, 97.49 °W | Updated 2 minutes ago

Mostly Cloudy
Mostly Cloudy
82.8 °F
Feels Like 91 °F
N
8.0
Wind Variable Wind from NW
Gusts 9.0 mph

Today
High -- | Low -- °F
--% Chance of Precip.
Yesterday
High -- | Low -- °F
Precip. -- in
Pressure 29.88 in
Visibility 10.0 miles
Clouds Mostly Cloudy 1500 ft
Heat Index 91 °F
Dew Point 76 °F
Humidity 80%
Rainfall 0.00 in
Snow Depth Not available.
7:10 AM 7:51 PM
Waning Crescent, 3% visible
METAR KHRL 301452Z 31008KT 10SM BKN015 28/24 A2988 RMK AO2 SLP119 T02780239 53004
Pressure 29.88 in
Visibility 10.0 miles
Clouds Mostly Cloudy 1500 ft
Heat Index 91 °F
Dew Point 76 °F
Humidity 80%
Rainfall 0.00 in
Snow Depth Not available.
7:10 AM 7:51 PM
Waning Crescent, 3% visible
METAR KHRL 301452Z 31008KT 10SM BKN015 28/24 A2988 RMK AO2 SLP119 T02780239 53004

10-Day Weather Forecast

Almanac

Astronomy

Aug. 30, 2016 Rise Set
Actual Time
Civil Twilight
Nautical Twilight
Astronomical Twilight
Moon
Length of Visible Light
Length of Day
Tomorrow will be .
, % of the Moon is Illuminated

Today's Extremes

State Highs State Lows

Community

WunderPhotos

Upload Photos

1,935,855 photos uploaded!

WunderBlog® & News

Nearby

Air Quality

  Air Quality AQ Index Pollutant
Not available.

Snow Depth

Station Depth Elevation

Earthquake Activity

City Distance Mag. Time & Date
Minimum magnitude displayed is 2.5.

Coastal Water Temperatures

Place Temperature

Stations

Nearby Weather Stations

Station Location Temp. Windchill Dew Point Humidity Wind Precip. Elev Updated Type
                   

Watches & Warnings

There are currently no watches in effect.